sensor_id;sensor_type;location;lat;lon;timestamp;pressure;altitude;pressure_sealevel;temperature;humidity
7524;BME280;3803;51.666;7.630;2023-12-28T00:00:17;100411.25;;;13.32;50.83
7524;BME280;3803;51.666;7.630;2023-12-28T00:00:38;100421.63;;;13.20;50.88
7524;BME280;3803;51.666;7.630;2023-12-28T00:00:58;100403.13;;;13.07;51.43
7524;BME280;3803;51.666;7.630;2023-12-28T00:01:19;100417.09;;;13.06;51.48
7524;BME280;3803;51.666;7.630;2023-12-28T00:01:40;100407.38;;;12.97;51.38
7524;BME280;3803;51.666;7.630;2023-12-28T00:02:01;100416.94;;;12.94;51.74
7524;BME280;3803;51.666;7.630;2023-12-28T00:02:22;100401.97;;;12.85;51.77
7524;BME280;3803;51.666;7.630;2023-12-28T00:02:43;100418.56;;;12.87;51.92
7524;BME280;3803;51.666;7.630;2023-12-28T00:03:05;100408.91;;;12.81;52.17
7524;BME280;3803;51.666;7.630;2023-12-28T00:03:26;100403.56;;;12.75;52.03
7524;BME280;3803;51.666;7.630;2023-12-28T00:03:47;100406.97;;;12.68;52.19
7524;BME280;3803;51.666;7.630;2023-12-28T00:04:07;100420.91;;;12.67;52.17
7524;BME280;3803;51.666;7.630;2023-12-28T00:04:28;100422.44;;;12.49;52.62
7524;BME280;3803;51.666;7.630;2023-12-28T00:04:48;100415.47;;;12.51;52.54
7524;BME280;3803;51.666;7.630;2023-12-28T00:05:09;100401.44;;;12.44;52.91
7524;BME280;3803;51.666;7.630;2023-12-28T00:05:29;100395.31;;;12.47;52.86
7524;BME280;3803;51.666;7.630;2023-12-28T00:05:50;100405.50;;;12.27;54.00
7524;BME280;3803;51.666;7.630;2023-12-28T00:06:11;100408.16;;;12.28;53.73
7524;BME280;3803;51.666;7.630;2023-12-28T00:06:31;100403.88;;;12.35;53.89
7524;BME280;3803;51.666;7.630;2023-12-28T00:06:52;100428.25;;;12.31;54.12
7524;BME280;3803;51.666;7.630;2023-12-28T00:07:13;100419.44;;;12.26;54.20
7524;BME280;3803;51.666;7.630;2023-12-28T00:07:34;100424.75;;;12.30;54.35
7524;BME280;3803;51.666;7.630;2023-12-28T00:07:56;100425.59;;;12.29;54.46
7524;BME280;3803;51.666;7.630;2023-12-28T00:08:19;100430.75;;;12.23;54.39
7524;BME280;3803;51.666;7.630;2023-12-28T00:08:40;100399.34;;;12.23;54.41
7524;BME280;3803;51.666;7.630;2023-12-28T00:09:01;100406.38;;;12.24;53.96
7524;BME280;3803;51.666;7.630;2023-12-28T00:09:21;100421.88;;;12.15;54.63
7524;BME280;3803;51.666;7.630;2023-12-28T00:09:42;100435.97;;;12.23;54.49
7524;BME280;3803;51.666;7.630;2023-12-28T00:10:03;100414.28;;;12.29;54.38
7524;BME280;3803;51.666;7.630;2023-12-28T00:10:25;100399.44;;;12.29;53.74
7524;BME280;3803;51.666;7.630;2023-12-28T00:10:46;100400.31;;;12.28;54.09
7524;BME280;3803;51.666;7.630;2023-12-28T00:11:07;100405.53;;;12.28;54.34
7524;BME280;3803;51.666;7.630;2023-12-28T00:11:27;100412.66;;;12.37;54.03
7524;BME280;3803;51.666;7.630;2023-12-28T00:11:48;100402.16;;;12.36;53.65
7524;BME280;3803;51.666;7.630;2023-12-28T00:12:21;100417.66;;;12.23;54.14
7524;BME280;3803;51.666;7.630;2023-12-28T00:12:44;100413.16;;;12.13;54.98
7524;BME280;3803;51.666;7.630;2023-12-28T00:13:05;100417.59;;;12.18;54.77
7524;BME280;3803;51.666;7.630;2023-12-28T00:13:25;100402.78;;;12.19;54.69
7524;BME280;3803;51.666;7.630;2023-12-28T00:13:46;100420.31;;;12.25;54.79
7524;BME280;3803;51.666;7.630;2023-12-28T00:14:07;100422.88;;;12.22;54.50
7524;BME280;3803;51.666;7.630;2023-12-28T00:14:27;100421.97;;;12.18;54.71
7524;BME280;3803;51.666;7.630;2023-12-28T00:14:48;100425.38;;;12.12;55.16
7524;BME280;3803;51.666;7.630;2023-12-28T00:15:09;100409.59;;;12.09;55.19
7524;BME280;3803;51.666;7.630;2023-12-28T00:15:29;100422.88;;;12.22;55.03
7524;BME280;3803;51.666;7.630;2023-12-28T00:15:50;100435.16;;;12.24;54.82
7524;BME280;3803;51.666;7.630;2023-12-28T00:16:10;100413.34;;;12.27;55.07
7524;BME280;3803;51.666;7.630;2023-12-28T00:16:31;100422.97;;;12.26;54.92
7524;BME280;3803;51.666;7.630;2023-12-28T00:16:57;100420.41;;;12.31;54.86
7524;BME280;3803;51.666;7.630;2023-12-28T00:17:17;100415.13;;;12.26;54.96
7524;BME280;3803;51.666;7.630;2023-12-28T00:17:38;100424.81;;;12.35;54.89
7524;BME280;3803;51.666;7.630;2023-12-28T00:17:59;100429.22;;;12.38;55.10
7524;BME280;3803;51.666;7.630;2023-12-28T00:18:19;100409.13;;;12.33;55.00
7524;BME280;3803;51.666;7.630;2023-12-28T00:18:40;100410.09;;;12.43;54.37
7524;BME280;3803;51.666;7.630;2023-12-28T00:19:01;100392.72;;;12.45;54.44
7524;BME280;3803;51.666;7.630;2023-12-28T00:19:22;100418.91;;;12.48;54.32
7524;BME280;3803;51.666;7.630;2023-12-28T00:19:43;100411.03;;;12.47;54.14
7524;BME280;3803;51.666;7.630;2023-12-28T00:20:04;100428.69;;;12.60;54.47
7524;BME280;3803;51.666;7.630;2023-12-28T00:20:25;100408.41;;;12.47;54.53
7524;BME280;3803;51.666;7.630;2023-12-28T00:20:46;100407.66;;;12.53;54.60
7524;BME280;3803;51.666;7.630;2023-12-28T00:21:06;100404.16;;;12.55;54.39
7524;BME280;3803;51.666;7.630;2023-12-28T00:21:27;100409.44;;;12.57;54.54
7524;BME280;3803;51.666;7.630;2023-12-28T00:21:48;100420.06;;;12.68;53.99
7524;BME280;3803;51.666;7.630;2023-12-28T00:22:08;100424.44;;;12.69;54.22
7524;BME280;3803;51.666;7.630;2023-12-28T00:22:29;100428.69;;;12.60;54.17
7524;BME280;3803;51.666;7.630;2023-12-28T00:22:50;100423.41;;;12.57;54.48
7524;BME280;3803;51.666;7.630;2023-12-28T00:23:11;100431.13;;;12.50;54.78
7524;BME280;3803;51.666;7.630;2023-12-28T00:23:31;100426.91;;;12.58;54.52
7524;BME280;3803;51.666;7.630;2023-12-28T00:23:52;100412.94;;;12.59;54.71
7524;BME280;3803;51.666;7.630;2023-12-28T00:24:15;100420.78;;;12.59;54.66
7524;BME280;3803;51.666;7.630;2023-12-28T00:24:35;100429.63;;;12.66;54.63
7524;BME280;3803;51.666;7.630;2023-12-28T00:24:56;100437.47;;;12.64;54.66
7524;BME280;3803;51.666;7.630;2023-12-28T00:25:16;100415.56;;;12.57;54.62
7524;BME280;3803;51.666;7.630;2023-12-28T00:25:37;100448.75;;;12.61;54.50
7524;BME280;3803;51.666;7.630;2023-12-28T00:25:58;100426.16;;;12.67;54.21
7524;BME280;3803;51.666;7.630;2023-12-28T00:26:18;100444.50;;;12.68;54.35
7524;BME280;3803;51.666;7.630;2023-12-28T00:26:43;100437.47;;;12.64;54.38
7524;BME280;3803;51.666;7.630;2023-12-28T00:27:04;100440.03;;;12.63;54.56
7524;BME280;3803;51.666;7.630;2023-12-28T00:27:25;100425.16;;;12.58;54.52
7524;BME280;3803;51.666;7.630;2023-12-28T00:27:45;100431.13;;;12.48;54.72
7524;BME280;3803;51.666;7.630;2023-12-28T00:28:06;100448.69;;;12.57;54.34
7524;BME280;3803;51.666;7.630;2023-12-28T00:28:27;100446.03;;;12.54;54.36
7524;BME280;3803;51.666;7.630;2023-12-28T00:28:48;100463.53;;;12.56;54.78
7524;BME280;3803;51.666;7.630;2023-12-28T00:29:09;100429.31;;;12.44;54.74
7524;BME280;3803;51.666;7.630;2023-12-28T00:29:29;100436.38;;;12.50;54.71
7524;BME280;3803;51.666;7.630;2023-12-28T00:29:50;100466.00;;;12.47;54.49
7524;BME280;3803;51.666;7.630;2023-12-28T00:30:13;100436.38;;;12.48;54.48
7524;BME280;3803;51.666;7.630;2023-12-28T00:30:34;100430.16;;;12.41;54.59
7524;BME280;3803;51.666;7.630;2023-12-28T00:30:54;100433.75;;;12.48;54.48
7524;BME280;3803;51.666;7.630;2023-12-28T00:31:15;100453.72;;;12.43;54.67
7524;BME280;3803;51.666;7.630;2023-12-28T00:31:36;100434.53;;;12.42;54.73
7524;BME280;3803;51.666;7.630;2023-12-28T00:31:57;100425.03;;;12.49;54.60
7524;BME280;3803;51.666;7.630;2023-12-28T00:32:18;100440.75;;;12.51;54.54
7524;BME280;3803;51.666;7.630;2023-12-28T00:32:39;100435.50;;;12.49;54.64
7524;BME280;3803;51.666;7.630;2023-12-28T00:33:03;100431.13;;;12.48;54.31
7524;BME280;3803;51.666;7.630;2023-12-28T00:33:24;100440.75;;;12.49;54.52
7524;BME280;3803;51.666;7.630;2023-12-28T00:33:45;100448.50;;;12.43;54.92
7524;BME280;3803;51.666;7.630;2023-12-28T00:34:05;100441.50;;;12.42;54.63
7524;BME280;3803;51.666;7.630;2023-12-28T00:34:26;100415.22;;;12.32;55.12
7524;BME280;3803;51.666;7.630;2023-12-28T00:34:47;100444.78;;;12.28;55.37
7524;BME280;3803;51.666;7.630;2023-12-28T00:35:07;100457.06;;;12.32;55.25
7524;BME280;3803;51.666;7.630;2023-12-28T00:35:28;100448.41;;;12.37;55.16
7524;BME280;3803;51.666;7.630;2023-12-28T00:35:51;100452.75;;;12.34;55.08
7524;BME280;3803;51.666;7.630;2023-12-28T00:36:12;100441.44;;;12.37;55.41
7524;BME280;3803;51.666;7.630;2023-12-28T00:36:33;100450.13;;;12.34;55.69
7524;BME280;3803;51.666;7.630;2023-12-28T00:36:53;100446.59;;;12.32;55.50
7524;BME280;3803;51.666;7.630;2023-12-28T00:37:14;100437.00;;;12.33;55.53
7524;BME280;3803;51.666;7.630;2023-12-28T00:37:35;100438.78;;;12.36;55.67
7524;BME280;3803;51.666;7.630;2023-12-28T00:37:55;100455.44;;;12.41;55.59
7524;BME280;3803;51.666;7.630;2023-12-28T00:38:16;100448.47;;;12.40;55.45
7524;BME280;3803;51.666;7.630;2023-12-28T00:38:37;100433.72;;;12.46;55.44
7524;BME280;3803;51.666;7.630;2023-12-28T00:38:58;100443.44;;;12.55;55.38
7524;BME280;3803;51.666;7.630;2023-12-28T00:39:18;100439.94;;;12.55;55.07
7524;BME280;3803;51.666;7.630;2023-12-28T00:39:39;100444.38;;;12.60;54.94
7524;BME280;3803;51.666;7.630;2023-12-28T00:40:01;100438.22;;;12.57;55.03
7524;BME280;3803;51.666;7.630;2023-12-28T00:40:23;100433.03;;;12.58;55.08
7524;BME280;3803;51.666;7.630;2023-12-28T00:40:44;100431.13;;;12.48;55.19
7524;BME280;3803;51.666;7.630;2023-12-28T00:41:04;100418.88;;;12.47;55.39
7524;BME280;3803;51.666;7.630;2023-12-28T00:41:25;100432.81;;;12.46;55.38
7524;BME280;3803;51.666;7.630;2023-12-28T00:41:46;100437.31;;;12.53;55.28
7524;BME280;3803;51.666;7.630;2023-12-28T00:42:06;100439.06;;;12.54;55.26
7524;BME280;3803;51.666;7.630;2023-12-28T00:42:27;100437.44;;;12.61;55.12
7524;BME280;3803;51.666;7.630;2023-12-28T00:42:48;100421.63;;;12.55;55.30
7524;BME280;3803;51.666;7.630;2023-12-28T00:43:09;100434.78;;;12.59;55.30
7524;BME280;3803;51.666;7.630;2023-12-28T00:43:29;100436.53;;;12.60;55.03
7524;BME280;3803;51.666;7.630;2023-12-28T00:43:50;100440.91;;;12.61;54.91
7524;BME280;3803;51.666;7.630;2023-12-28T00:44:11;100426.91;;;12.56;55.50
7524;BME280;3803;51.666;7.630;2023-12-28T00:44:31;100437.50;;;12.67;55.42
7524;BME280;3803;51.666;7.630;2023-12-28T00:44:52;100437.44;;;12.63;55.27
7524;BME280;3803;51.666;7.630;2023-12-28T00:45:13;100438.38;;;12.68;55.11
7524;BME280;3803;51.666;7.630;2023-12-28T00:45:34;100420.91;;;12.67;55.20
7524;BME280;3803;51.666;7.630;2023-12-28T00:45:54;100437.50;;;12.66;55.09
7524;BME280;3803;51.666;7.630;2023-12-28T00:46:15;100437.56;;;12.70;55.21
7524;BME280;3803;51.666;7.630;2023-12-28T00:46:35;100439.13;;;12.59;55.84
7524;BME280;3803;51.666;7.630;2023-12-28T00:46:56;100424.34;;;12.63;55.28
7524;BME280;3803;51.666;7.630;2023-12-28T00:47:17;100425.34;;;12.72;55.35
7524;BME280;3803;51.666;7.630;2023-12-28T00:47:37;100431.50;;;12.76;55.25
7524;BME280;3803;51.666;7.630;2023-12-28T00:47:58;100428.91;;;12.78;55.52
7524;BME280;3803;51.666;7.630;2023-12-28T00:48:19;100441.97;;;12.76;55.18
7524;BME280;3803;51.666;7.630;2023-12-28T00:48:40;100431.53;;;12.79;55.03
7524;BME280;3803;51.666;7.630;2023-12-28T00:49:01;100436.88;;;12.85;54.66
7524;BME280;3803;51.666;7.630;2023-12-28T00:49:22;100436.84;;;12.82;55.23
7524;BME280;3803;51.666;7.630;2023-12-28T00:49:42;100436.00;;;12.85;54.99
7524;BME280;3803;51.666;7.630;2023-12-28T00:50:03;100440.31;;;12.81;54.69
7524;BME280;3803;51.666;7.630;2023-12-28T00:50:24;100442.19;;;12.92;54.88
7524;BME280;3803;51.666;7.630;2023-12-28T00:50:47;100441.50;;;13.04;54.50
7524;BME280;3803;51.666;7.630;2023-12-28T00:51:08;100438.03;;;13.06;54.72
7524;BME280;3803;51.666;7.630;2023-12-28T00:51:29;100430.94;;;12.97;54.21
7524;BME280;3803;51.666;7.630;2023-12-28T00:51:49;100429.25;;;12.99;54.56
7524;BME280;3803;51.666;7.630;2023-12-28T00:52:10;100433.56;;;12.96;54.59
7524;BME280;3803;51.666;7.630;2023-12-28T00:52:30;100433.66;;;13.04;54.29
7524;BME280;3803;51.666;7.630;2023-12-28T00:52:51;100443.19;;;13.00;54.58
7524;BME280;3803;51.666;7.630;2023-12-28T00:53:12;100435.34;;;13.00;54.55
7524;BME280;3803;51.666;7.630;2023-12-28T00:53:33;100444.94;;;12.98;54.75
7524;BME280;3803;51.666;7.630;2023-12-28T00:53:54;100432.75;;;13.03;54.58
7524;BME280;3803;51.666;7.630;2023-12-28T00:54:15;100431.03;;;13.07;54.60
7524;BME280;3803;51.666;7.630;2023-12-28T00:54:36;100446.75;;;13.07;54.17
7524;BME280;3803;51.666;7.630;2023-12-28T00:54:57;100444.16;;;13.07;54.49
7524;BME280;3803;51.666;7.630;2023-12-28T00:55:18;100436.28;;;13.07;54.49
7524;BME280;3803;51.666;7.630;2023-12-28T00:55:38;100433.66;;;13.05;54.46
7524;BME280;3803;51.666;7.630;2023-12-28T00:55:59;100434.50;;;13.02;54.44
7524;BME280;3803;51.666;7.630;2023-12-28T00:56:20;100441.41;;;12.96;54.82
7524;BME280;3803;51.666;7.630;2023-12-28T00:56:41;100447.56;;;12.99;54.59
7524;BME280;3803;51.666;7.630;2023-12-28T00:57:05;100451.16;;;13.06;54.50
7524;BME280;3803;51.666;7.630;2023-12-28T00:57:26;100443.16;;;12.98;54.52
7524;BME280;3803;51.666;7.630;2023-12-28T00:57:46;100462.38;;;12.97;54.83
7524;BME280;3803;51.666;7.630;2023-12-28T00:58:07;100437.94;;;12.98;54.62
7524;BME280;3803;51.666;7.630;2023-12-28T00:58:28;100449.38;;;13.05;54.75
7524;BME280;3803;51.666;7.630;2023-12-28T00:58:48;100439.72;;;13.01;54.50
7524;BME280;3803;51.666;7.630;2023-12-28T00:59:09;100436.22;;;13.02;54.55
7524;BME280;3803;51.666;7.630;2023-12-28T00:59:30;100440.63;;;13.05;54.55
7524;BME280;3803;51.666;7.630;2023-12-28T00:59:51;100442.41;;;13.07;54.46
7524;BME280;3803;51.666;7.630;2023-12-28T01:00:12;100445.03;;;13.07;54.40
7524;BME280;3803;51.666;7.630;2023-12-28T01:00:33;100439.72;;;12.99;54.77
7524;BME280;3803;51.666;7.630;2023-12-28T01:00:53;100447.63;;;13.04;54.47
7524;BME280;3803;51.666;7.630;2023-12-28T01:01:16;100442.31;;;12.98;54.41
7524;BME280;3803;51.666;7.630;2023-12-28T01:01:36;100462.25;;;12.91;54.68
7524;BME280;3803;51.666;7.630;2023-12-28T01:01:57;100447.44;;;12.92;54.55
7524;BME280;3803;51.666;7.630;2023-12-28T01:02:20;100425.53;;;12.85;54.56
7524;BME280;3803;51.666;7.630;2023-12-28T01:02:42;100437.69;;;12.83;54.83
7524;BME280;3803;51.666;7.630;2023-12-28T01:03:03;100442.19;;;12.92;54.86
7524;BME280;3803;51.666;7.630;2023-12-28T01:03:24;100445.69;;;12.91;54.55
7524;BME280;3803;51.666;7.630;2023-12-28T01:03:47;100441.19;;;12.82;54.61
7524;BME280;3803;51.666;7.630;2023-12-28T01:04:07;100447.38;;;12.87;54.72
7524;BME280;3803;51.666;7.630;2023-12-28T01:04:28;100450.88;;;12.87;54.74
7524;BME280;3803;51.666;7.630;2023-12-28T01:04:52;100455.25;;;12.90;54.67
7524;BME280;3803;51.666;7.630;2023-12-28T01:05:13;100449.97;;;12.85;54.87
7524;BME280;3803;51.666;7.630;2023-12-28T01:05:36;100443.84;;;12.86;54.79
7524;BME280;3803;51.666;7.630;2023-12-28T01:05:57;100461.34;;;12.89;54.81
7524;BME280;3803;51.666;7.630;2023-12-28T01:06:18;100450.97;;;12.94;54.82
7524;BME280;3803;51.666;7.630;2023-12-28T01:06:39;100448.22;;;12.84;54.85
7524;BME280;3803;51.666;7.630;2023-12-28T01:06:59;100454.34;;;12.86;54.77
7524;BME280;3803;51.666;7.630;2023-12-28T01:07:22;100448.22;;;12.84;54.78
7524;BME280;3803;51.666;7.630;2023-12-28T01:07:45;100449.09;;;12.85;54.82
7524;BME280;3803;51.666;7.630;2023-12-28T01:08:06;100445.56;;;12.81;54.87
7524;BME280;3803;51.666;7.630;2023-12-28T01:08:27;100460.59;;;12.93;54.75
7524;BME280;3803;51.666;7.630;2023-12-28T01:08:47;100453.41;;;12.83;54.74
7524;BME280;3803;51.666;7.630;2023-12-28T01:09:08;100456.13;;;12.87;54.98
7524;BME280;3803;51.666;7.630;2023-12-28T01:09:30;100453.44;;;12.84;54.92
7524;BME280;3803;51.666;7.630;2023-12-28T01:09:50;100470.13;;;12.93;54.69
7524;BME280;3803;51.666;7.630;2023-12-28T01:10:11;100474.56;;;12.95;54.90
7524;BME280;3803;51.666;7.630;2023-12-28T01:10:32;100458.72;;;12.86;55.05
7524;BME280;3803;51.666;7.630;2023-12-28T01:10:53;100473.59;;;12.90;54.95
7524;BME280;3803;51.666;7.630;2023-12-28T01:11:13;100470.97;;;12.90;54.92
7524;BME280;3803;51.666;7.630;2023-12-28T01:11:34;100452.53;;;12.82;54.72
7524;BME280;3803;51.666;7.630;2023-12-28T01:11:55;100468.44;;;12.95;54.89
7524;BME280;3803;51.666;7.630;2023-12-28T01:12:19;100462.25;;;12.91;54.70
7524;BME280;3803;51.666;7.630;2023-12-28T01:12:39;100454.38;;;12.88;54.84
7524;BME280;3803;51.666;7.630;2023-12-28T01:13:00;100440.31;;;12.81;54.95
7524;BME280;3803;51.666;7.630;2023-12-28T01:13:21;100462.13;;;12.82;55.05
7524;BME280;3803;51.666;7.630;2023-12-28T01:13:42;100463.03;;;12.82;54.93
7524;BME280;3803;51.666;7.630;2023-12-28T01:14:02;100456.91;;;12.82;55.17
7524;BME280;3803;51.666;7.630;2023-12-28T01:14:23;100458.75;;;12.87;55.11
7524;BME280;3803;51.666;7.630;2023-12-28T01:14:44;100462.28;;;12.93;54.87
7524;BME280;3803;51.666;7.630;2023-12-28T01:15:05;100453.59;;;12.94;55.26
7524;BME280;3803;51.666;7.630;2023-12-28T01:15:25;100451.91;;;12.96;54.93
7524;BME280;3803;51.666;7.630;2023-12-28T01:15:46;100452.75;;;12.96;54.85
7524;BME280;3803;51.666;7.630;2023-12-28T01:16:07;100465.03;;;13.02;55.12
7524;BME280;3803;51.666;7.630;2023-12-28T01:16:27;100462.38;;;12.96;55.14
7524;BME280;3803;51.666;7.630;2023-12-28T01:16:49;100457.88;;;12.88;54.93
7524;BME280;3803;51.666;7.630;2023-12-28T01:17:10;100459.63;;;12.89;55.04
7524;BME280;3803;51.666;7.630;2023-12-28T01:17:31;100450.13;;;12.96;55.11
7524;BME280;3803;51.666;7.630;2023-12-28T01:17:52;100451.88;;;12.94;55.14
7524;BME280;3803;51.666;7.630;2023-12-28T01:18:13;100456.28;;;12.98;55.07
7524;BME280;3803;51.666;7.630;2023-12-28T01:18:33;100456.28;;;13.00;55.04
7524;BME280;3803;51.666;7.630;2023-12-28T01:18:54;100464.03;;;12.92;55.07
7524;BME280;3803;51.666;7.630;2023-12-28T01:19:15;100458.84;;;12.95;55.14
7524;BME280;3803;51.666;7.630;2023-12-28T01:19:35;100462.38;;;12.97;54.98
7524;BME280;3803;51.666;7.630;2023-12-28T01:19:56;100472.81;;;12.94;54.87
7524;BME280;3803;51.666;7.630;2023-12-28T01:20:17;100480.75;;;13.02;55.14
7524;BME280;3803;51.666;7.630;2023-12-28T01:20:38;100471.97;;;12.98;55.22
7524;BME280;3803;51.666;7.630;2023-12-28T01:20:58;100465.03;;;12.99;55.17
7524;BME280;3803;51.666;7.630;2023-12-28T01:21:20;100466.72;;;12.95;55.02
7524;BME280;3803;51.666;7.630;2023-12-28T01:21:40;100491.28;;;13.04;54.99
7524;BME280;3803;51.666;7.630;2023-12-28T01:22:01;100462.38;;;12.97;55.15
7524;BME280;3803;51.666;7.630;2023-12-28T01:22:22;100473.91;;;13.12;54.82
7524;BME280;3803;51.666;7.630;2023-12-28T01:22:42;100454.63;;;13.05;54.66
7524;BME280;3803;51.666;7.630;2023-12-28T01:23:03;100467.88;;;13.16;54.79
7524;BME280;3803;51.666;7.630;2023-12-28T01:23:24;100445.00;;;13.04;54.84
7524;BME280;3803;51.666;7.630;2023-12-28T01:23:48;100458.22;;;13.13;54.61
7524;BME280;3803;51.666;7.630;2023-12-28T01:24:09;100470.47;;;13.14;54.67
7524;BME280;3803;51.666;7.630;2023-12-28T01:24:29;100461.69;;;13.11;54.56
7524;BME280;3803;51.666;7.630;2023-12-28T01:24:50;100458.25;;;13.16;54.56
7524;BME280;3803;51.666;7.630;2023-12-28T01:25:11;100464.44;;;13.22;54.78
7524;BME280;3803;51.666;7.630;2023-12-28T01:25:31;100454.81;;;13.21;54.52
7524;BME280;3803;51.666;7.630;2023-12-28T01:25:52;100463.47;;;13.16;54.51
7524;BME280;3803;51.666;7.630;2023-12-28T01:26:13;100460.88;;;13.15;54.48
7524;BME280;3803;51.666;7.630;2023-12-28T01:26:37;100466.00;;;13.07;54.80
7524;BME280;3803;51.666;7.630;2023-12-28T01:26:58;100467.72;;;13.05;54.60
7524;BME280;3803;51.666;7.630;2023-12-28T01:27:18;100470.47;;;13.14;54.66
7524;BME280;3803;51.666;7.630;2023-12-28T01:27:39;100472.25;;;13.19;54.87
7524;BME280;3803;51.666;7.630;2023-12-28T01:28:00;100477.53;;;13.22;54.79
7524;BME280;3803;51.666;7.630;2023-12-28T01:28:21;100479.31;;;13.26;54.80
7524;BME280;3803;51.666;7.630;2023-12-28T01:28:41;100458.25;;;13.16;55.11
7524;BME280;3803;51.666;7.630;2023-12-28T01:29:03;100465.25;;;13.18;54.80
7524;BME280;3803;51.666;7.630;2023-12-28T01:29:25;100466.16;;;13.20;54.76
7524;BME280;3803;51.666;7.630;2023-12-28T01:29:45;100463.56;;;13.23;54.78
7524;BME280;3803;51.666;7.630;2023-12-28T01:30:06;100455.69;;;13.20;54.53
7524;BME280;3803;51.666;7.630;2023-12-28T01:30:27;100462.63;;;13.18;54.65
7524;BME280;3803;51.666;7.630;2023-12-28T01:30:48;100458.25;;;13.16;54.65
7524;BME280;3803;51.666;7.630;2023-12-28T01:31:09;100444.19;;;13.10;54.62
7524;BME280;3803;51.666;7.630;2023-12-28T01:31:29;100469.69;;;13.25;54.91
7524;BME280;3803;51.666;7.630;2023-12-28T01:31:50;100448.59;;;13.12;54.56
7524;BME280;3803;51.666;7.630;2023-12-28T01:32:11;100460.00;;;13.18;54.59
7524;BME280;3803;51.666;7.630;2023-12-28T01:32:31;100457.44;;;13.21;54.70
7524;BME280;3803;51.666;7.630;2023-12-28T01:32:53;100462.72;;;13.25;54.68
7524;BME280;3803;51.666;7.630;2023-12-28T01:33:14;100469.69;;;13.23;54.73
7524;BME280;3803;51.666;7.630;2023-12-28T01:33:35;100458.31;;;13.20;54.58
7524;BME280;3803;51.666;7.630;2023-12-28T01:33:56;100458.31;;;13.23;54.84
7524;BME280;3803;51.666;7.630;2023-12-28T01:34:16;100474.97;;;13.26;54.59
7524;BME280;3803;51.666;7.630;2023-12-28T01:34:37;100461.84;;;13.25;54.84
7524;BME280;3803;51.666;7.630;2023-12-28T01:34:58;100460.94;;;13.23;54.49
7524;BME280;3803;51.666;7.630;2023-12-28T01:35:19;100470.66;;;13.30;54.82
7524;BME280;3803;51.666;7.630;2023-12-28T01:35:39;100452.28;;;13.27;54.58
7524;BME280;3803;51.666;7.630;2023-12-28T01:36:02;100458.25;;;13.16;54.58
7524;BME280;3803;51.666;7.630;2023-12-28T01:36:23;100463.56;;;13.23;54.79
7524;BME280;3803;51.666;7.630;2023-12-28T01:36:44;100474.06;;;13.23;54.53
7524;BME280;3803;51.666;7.630;2023-12-28T01:37:05;100461.81;;;13.22;54.64
7524;BME280;3803;51.666;7.630;2023-12-28T01:37:26;100469.78;;;13.31;54.88
7524;BME280;3803;51.666;7.630;2023-12-28T01:37:51;100479.53;;;13.43;54.62
7524;BME280;3803;51.666;7.630;2023-12-28T01:38:11;100467.13;;;13.28;54.23
7524;BME280;3803;51.666;7.630;2023-12-28T01:38:32;100460.13;;;13.28;54.65
7524;BME280;3803;51.666;7.630;2023-12-28T01:38:52;100458.41;;;13.29;54.52
7524;BME280;3803;51.666;7.630;2023-12-28T01:39:13;100476.78;;;13.32;54.36
7524;BME280;3803;51.666;7.630;2023-12-28T01:39:35;100460.19;;;13.33;54.60
7524;BME280;3803;51.666;7.630;2023-12-28T01:39:56;100476.75;;;13.29;54.31
7524;BME280;3803;51.666;7.630;2023-12-28T01:40:18;100461.06;;;13.32;54.72
7524;BME280;3803;51.666;7.630;2023-12-28T01:40:44;100480.28;;;13.33;54.76
7524;BME280;3803;51.666;7.630;2023-12-28T01:41:04;100486.47;;;13.39;54.84
7524;BME280;3803;51.666;7.630;2023-12-28T01:41:28;100477.72;;;13.37;54.52
7524;BME280;3803;51.666;7.630;2023-12-28T01:41:49;100462.72;;;13.25;54.73
7524;BME280;3803;51.666;7.630;2023-12-28T01:42:10;100472.47;;;13.37;54.59
7524;BME280;3803;51.666;7.630;2023-12-28T01:42:30;100474.22;;;13.35;54.64
7524;BME280;3803;51.666;7.630;2023-12-28T01:42:52;100472.47;;;13.37;54.63
7524;BME280;3803;51.666;7.630;2023-12-28T01:43:13;100473.28;;;13.32;54.72
7524;BME280;3803;51.666;7.630;2023-12-28T01:43:33;100477.75;;;13.39;54.98
7524;BME280;3803;51.666;7.630;2023-12-28T01:43:54;100468.94;;;13.34;54.90
7524;BME280;3803;51.666;7.630;2023-12-28T01:44:15;100484.72;;;13.38;54.79
7524;BME280;3803;51.666;7.630;2023-12-28T01:44:35;100492.59;;;13.40;54.81
7524;BME280;3803;51.666;7.630;2023-12-28T01:44:57;100479.44;;;13.35;55.19
7524;BME280;3803;51.666;7.630;2023-12-28T01:45:18;100472.41;;;13.34;54.94
7524;BME280;3803;51.666;7.630;2023-12-28T01:45:38;100477.72;;;13.37;55.14
7524;BME280;3803;51.666;7.630;2023-12-28T01:46:02;100474.88;;;13.20;54.85
7524;BME280;3803;51.666;7.630;2023-12-28T01:46:23;100476.75;;;13.30;54.91
7524;BME280;3803;51.666;7.630;2023-12-28T01:46:43;100465.44;;;13.33;55.00
7524;BME280;3803;51.666;7.630;2023-12-28T01:47:04;100458.41;;;13.29;54.84
7524;BME280;3803;51.666;7.630;2023-12-28T01:47:26;100462.00;;;13.37;55.05
7524;BME280;3803;51.666;7.630;2023-12-28T01:47:47;100469.81;;;13.33;54.75
7524;BME280;3803;51.666;7.630;2023-12-28T01:48:09;100476.00;;;13.39;55.15
7524;BME280;3803;51.666;7.630;2023-12-28T01:48:30;100462.00;;;13.37;54.91
7524;BME280;3803;51.666;7.630;2023-12-28T01:48:51;100477.66;;;13.34;55.04
7524;BME280;3803;51.666;7.630;2023-12-28T01:49:16;100480.31;;;13.36;54.83
7524;BME280;3803;51.666;7.630;2023-12-28T01:49:36;100460.19;;;13.33;54.90
7524;BME280;3803;51.666;7.630;2023-12-28T01:49:58;100474.22;;;13.35;54.77
7524;BME280;3803;51.666;7.630;2023-12-28T01:50:20;100460.06;;;13.21;54.78
7524;BME280;3803;51.666;7.630;2023-12-28T01:50:42;100459.22;;;13.25;55.03
7524;BME280;3803;51.666;7.630;2023-12-28T01:51:03;100461.75;;;13.19;54.80
7524;BME280;3803;51.666;7.630;2023-12-28T01:51:23;100467.88;;;13.19;54.96
7524;BME280;3803;51.666;7.630;2023-12-28T01:51:45;100454.78;;;13.19;54.94
7524;BME280;3803;51.666;7.630;2023-12-28T01:52:07;100473.28;;;13.32;54.90
7524;BME280;3803;51.666;7.630;2023-12-28T01:52:28;100460.22;;;13.35;55.11
7524;BME280;3803;51.666;7.630;2023-12-28T01:52:51;100454.91;;;13.28;54.99
7524;BME280;3803;51.666;7.630;2023-12-28T01:53:12;100470.72;;;13.36;55.11